Time;durP1;ratioP1;P1;durP2;ratioP2;P2;SDS_P1;SDS_P2;PMS_P1;PMS_P2;Temp;Humidity;BMP_temperature;BMP_pressure;BME280_temperature;BME280_humidity;BME280_pressure;Samples;Min_cycle;Max_cycle;Signal;HPM_P1;HPM_P2
2022/03/30 00:03:00;;;;;;;0.20;0.10;;;14.60;99.90;;;;;;25382900;23;20206;-63
2022/03/30 00:13:04;;;;;;;0.20;0.10;;;14.60;99.90;;;;;;25409813;23;20219;-65
2022/03/30 00:23:10;;;;;;;0.20;0.10;;;14.60;99.90;;;;;;25383356;23;20230;-64
2022/03/30 00:33:14;;;;;;;0.20;0.00;;;14.60;99.90;;;;;;25385809;23;20182;-64
2022/03/30 00:43:19;;;;;;;0.20;0.00;;;14.50;99.90;;;;;;25408114;23;20187;-63
2022/03/30 00:53:23;;;;;;;0.20;0.10;;;14.50;99.90;;;;;;25407817;23;20226;-64
2022/03/30 01:03:28;;;;;;;0.97;0.20;;;14.40;99.90;;;;;;25385827;23;20943;-63
2022/03/30 01:13:34;;;;;;;0.20;0.10;;;14.40;99.90;;;;;;25380369;23;20198;-63
2022/03/30 01:23:59;;;;;;;0.20;0.10;;;14.30;99.90;;;;;;25376607;23;20195;-65
2022/03/30 01:34:03;;;;;;;0.20;0.10;;;14.30;99.90;;;;;;25402110;23;20186;-65
2022/03/30 01:44:08;;;;;;;0.20;0.10;;;14.30;99.90;;;;;;25400622;23;20215;-63
2022/03/30 01:54:12;;;;;;;0.20;0.10;;;14.30;99.90;;;;;;25403558;23;20195;-64
2022/03/30 02:04:17;;;;;;;0.20;0.10;;;14.10;99.90;;;;;;25404898;23;20187;-64
2022/03/30 02:14:21;;;;;;;0.20;0.10;;;14.00;99.90;;;;;;25405021;23;20195;-66
2022/03/30 02:24:27;;;;;;;0.30;0.30;;;13.90;99.90;;;;;;25406190;23;20199;-62
2022/03/30 02:34:31;;;;;;;0.20;0.10;;;13.90;99.90;;;;;;25412258;23;20163;-63
2022/03/30 02:44:37;;;;;;;0.30;0.30;;;13.90;99.90;;;;;;25412906;23;20219;-63
2022/03/30 02:54:40;;;;;;;0.20;0.10;;;13.90;99.90;;;;;;25411509;23;20203;-64
2022/03/30 03:04:46;;;;;;;0.20;0.10;;;13.90;99.90;;;;;;25414264;23;20406;-64
2022/03/30 03:14:49;;;;;;;0.20;0.10;;;14.00;99.90;;;;;;25384662;23;20211;-64
2022/03/30 03:24:55;;;;;;;0.20;0.10;;;14.00;99.90;;;;;;25411536;23;20207;-63
2022/03/30 03:34:58;;;;;;;8.60;7.73;;;14.00;99.90;;;;;;25408383;23;20187;-63
2022/03/30 03:45:06;;;;;;;0.20;0.10;;;14.00;99.90;;;;;;25412449;23;20218;-64
2022/03/30 03:55:10;;;;;;;2.30;1.60;;;14.10;99.90;;;;;;25410334;23;20227;-63
2022/03/30 04:05:15;;;;;;;0.20;0.10;;;14.10;99.90;;;;;;25383668;23;20268;-61
2022/03/30 04:15:19;;;;;;;0.20;0.10;;;14.20;99.90;;;;;;25385179;23;20203;-63
2022/03/30 04:25:24;;;;;;;0.20;0.10;;;14.20;99.90;;;;;;25406068;23;20230;-63
2022/03/30 04:35:28;;;;;;;0.20;0.10;;;14.20;99.90;;;;;;25382237;23;20171;-63
2022/03/30 04:45:34;;;;;;;0.20;0.10;;;13.90;99.90;;;;;;25381003;23;20191;-63
2022/03/30 04:55:38;;;;;;;0.20;0.10;;;13.70;99.90;;;;;;25407596;23;20206;-63
2022/03/30 05:05:43;;;;;;;0.20;0.10;;;13.40;99.90;;;;;;25406208;23;20219;-64
2022/03/30 05:15:47;;;;;;;0.20;0.10;;;13.30;99.90;;;;;;25379645;23;20815;-64
2022/03/30 05:25:52;;;;;;;0.20;0.00;;;12.90;99.90;;;;;;25377044;23;20215;-62
2022/03/30 05:35:56;;;;;;;0.20;0.10;;;12.50;99.90;;;;;;25405223;23;20167;-62
2022/03/30 05:46:02;;;;;;;0.20;0.03;;;12.00;99.90;;;;;;25400386;23;20294;-62
2022/03/30 05:56:06;;;;;;;0.20;0.10;;;11.90;99.90;;;;;;25374890;23;20207;-62
2022/03/30 06:06:11;;;;;;;0.20;0.10;;;11.90;99.90;;;;;;25395156;23;20199;-63
2022/03/30 06:16:15;;;;;;;0.20;0.10;;;11.70;99.90;;;;;;25400855;23;20298;-61
2022/03/30 06:26:20;;;;;;;0.20;0.10;;;11.30;99.90;;;;;;25400479;23;20199;-62
2022/03/30 06:36:24;;;;;;;0.20;0.10;;;11.40;99.90;;;;;;25400606;23;20175;-61
2022/03/30 06:46:33;;;;;;;0.20;0.10;;;11.50;99.90;;;;;;25401639;23;20168;-63
2022/03/30 06:56:37;;;;;;;0.20;0.10;;;11.50;99.90;;;;;;25397502;23;20222;-63
2022/03/30 07:10:14;;;;;;;0.20;0.10;;;11.60;99.90;;;;;;25399068;23;20175;-62
2022/03/30 07:17:06;;;;;;;0.20;0.10;;;11.40;99.90;;;;;;25377316;23;20203;-63
2022/03/30 07:27:12;;;;;;;0.20;0.10;;;11.40;99.90;;;;;;25376168;23;20196;-63
2022/03/30 07:37:15;;;;;;;0.20;0.10;;;11.30;99.90;;;;;;25406846;23;20467;-77
2022/03/30 07:47:21;;;;;;;0.20;0.10;;;11.30;99.90;;;;;;25379954;23;20175;-74
2022/03/30 07:57:27;;;;;;;0.20;0.10;;;11.10;99.90;;;;;;25491425;23;20202;-68
2022/03/30 08:07:34;;;;;;;0.20;0.10;;;11.20;99.90;;;;;;25527556;23;20402;-67
2022/03/30 08:17:38;;;;;;;0.20;0.00;;;11.50;99.90;;;;;;25520681;23;20202;-68
2022/03/30 08:27:44;;;;;;;0.20;0.10;;;11.40;99.90;;;;;;25530294;23;20186;-69
2022/03/30 08:37:48;;;;;;;0.20;0.00;;;11.40;99.90;;;;;;25486367;23;20195;-70
2022/03/30 08:47:54;;;;;;;0.20;0.10;;;11.50;99.90;;;;;;25512767;23;20491;-76
2022/03/30 08:57:59;;;;;;;0.20;0.20;;;11.60;99.90;;;;;;25385952;23;20211;-76
2022/03/30 09:08:13;;;;;;;0.20;0.10;;;12.00;99.90;;;;;;25365974;23;20178;-75
2022/03/30 09:18:17;;;;;;;0.20;0.10;;;12.10;99.90;;;;;;25391541;23;20234;-75
2022/03/30 09:28:24;;;;;;;0.20;0.10;;;12.30;99.90;;;;;;25391844;23;20188;-63
2022/03/30 09:38:37;;;;;;;0.20;0.10;;;12.40;99.90;;;;;;25387763;23;20207;-62
2022/03/30 09:48:49;;;;;;;0.70;0.70;;;12.50;99.90;;;;;;25386187;23;20384;-63
2022/03/30 09:59:00;;;;;;;0.20;0.10;;;12.20;99.90;;;;;;25387955;23;20210;-64
2022/03/30 10:09:06;;;;;;;0.20;0.10;;;12.30;99.90;;;;;;25385882;23;20191;-61
2022/03/30 10:19:10;;;;;;;0.20;0.00;;;12.30;99.90;;;;;;25381425;23;20199;-67
2022/03/30 10:29:18;;;;;;;0.20;0.10;;;12.50;99.90;;;;;;25378983;23;20171;-65
2022/03/30 10:39:27;;;;;;;0.20;0.10;;;12.40;99.90;;;;;;25385987;23;20687;-66
2022/03/30 10:49:55;;;;;;;0.20;0.00;;;12.50;99.90;;;;;;25387053;23;20234;-66
2022/03/30 11:00:06;;;;;;;0.20;0.10;;;13.10;99.90;;;;;;25394534;23;20270;-67
2022/03/30 11:10:29;;;;;;;0.20;0.10;;;13.40;99.90;;;;;;25366892;23;20175;-66
2022/03/30 11:20:34;;;;;;;0.20;0.00;;;13.40;99.90;;;;;;25393003;23;20555;-66
2022/03/30 11:30:43;;;;;;;0.20;0.10;;;13.30;99.90;;;;;;25391130;23;20275;-65
2022/03/30 11:40:47;;;;;;;0.20;0.10;;;13.70;99.90;;;;;;25392668;23;20286;-65
2022/03/30 11:50:58;;;;;;;0.20;0.10;;;14.30;99.90;;;;;;25393685;23;20235;-63
2022/03/30 12:01:04;;;;;;;0.20;0.00;;;14.10;99.90;;;;;;25393615;23;20246;-65
2022/03/30 12:11:10;;;;;;;0.20;0.00;;;14.40;99.90;;;;;;25394324;23;20190;-65
2022/03/30 12:21:15;;;;;;;0.20;0.00;;;15.00;99.90;;;;;;25396184;23;20191;-65
2022/03/30 12:31:21;;;;;;;0.20;0.10;;;15.50;99.90;;;;;;25393981;23;20683;-65
2022/03/30 12:41:26;;;;;;;0.20;0.10;;;15.80;99.90;;;;;;25366744;23;20223;-66
2022/03/30 12:51:33;;;;;;;0.20;0.10;;;17.80;99.90;;;;;;25368125;23;20202;-64
2022/03/30 13:01:39;;;;;;;0.20;0.10;;;18.10;99.90;;;;;;25394411;23;20191;-63
2022/03/30 13:11:46;;;;;;;0.20;0.10;;;18.10;99.90;;;;;;25394416;23;20175;-65
2022/03/30 13:21:51;;;;;;;0.20;0.10;;;18.30;99.90;;;;;;25395209;23;20183;-63
2022/03/30 13:31:56;;;;;;;0.20;0.10;;;18.60;99.90;;;;;;25393137;23;20179;-63
2022/03/30 13:42:01;;;;;;;0.20;0.10;;;21.50;99.90;;;;;;25369132;23;20195;-64
2022/03/30 13:52:07;;;;;;;0.20;0.10;;;21.90;99.90;;;;;;25371713;23;20195;-63
2022/03/30 14:02:11;;;;;;;0.20;0.00;;;21.40;99.90;;;;;;25393749;23;20201;-64
2022/03/30 14:12:16;;;;;;;0.20;0.10;;;21.80;99.90;;;;;;25361695;23;20195;-63
2022/03/30 14:22:20;;;;;;;0.83;0.83;;;21.80;99.90;;;;;;25393932;23;20203;-64
2022/03/30 14:32:25;;;;;;;0.20;0.00;;;19.80;99.90;;;;;;25376183;23;20223;-66
2022/03/30 14:42:29;;;;;;;0.20;0.00;;;21.20;99.90;;;;;;25398764;23;20191;-65
2022/03/30 14:52:34;;;;;;;0.20;0.10;;;18.70;99.90;;;;;;25375322;23;20222;-64
2022/03/30 15:02:41;;;;;;;0.20;0.10;;;19.80;99.90;;;;;;25372839;23;20207;-65
2022/03/30 15:12:46;;;;;;;0.20;0.10;;;21.70;99.90;;;;;;25397876;23;20192;-65
2022/03/30 15:22:50;;;;;;;0.20;0.10;;;21.80;99.90;;;;;;25369816;23;20198;-69
2022/03/30 15:32:58;;;;;;;0.20;0.10;;;22.30;99.90;;;;;;25372547;23;20171;-79
2022/03/30 15:43:02;;;;;;;0.20;0.10;;;20.60;99.90;;;;;;25372485;23;20199;-79
2022/03/30 15:53:08;;;;;;;0.20;0.00;;;19.50;99.90;;;;;;25376227;23;20359;-80
2022/03/30 16:03:15;;;;;;;0.20;0.10;;;17.80;99.90;;;;;;25401174;23;20191;-76
2022/03/30 16:13:21;;;;;;;0.20;0.10;;;16.60;99.90;;;;;;25401804;23;20195;-76
2022/03/30 16:23:25;;;;;;;0.20;0.10;;;15.70;99.90;;;;;;25402813;23;20278;-76
2022/03/30 16:33:30;;;;;;;0.20;0.10;;;15.20;99.90;;;;;;25378977;23;20488;-77
2022/03/30 16:43:34;;;;;;;0.20;0.10;;;15.00;99.90;;;;;;25397846;23;20202;-74
2022/03/30 16:53:39;;;;;;;0.20;0.10;;;14.80;99.90;;;;;;25397264;23;20191;-67
2022/03/30 17:03:44;;;;;;;0.20;0.00;;;14.70;99.90;;;;;;25373588;23;20206;-70
2022/03/30 17:13:49;;;;;;;0.20;0.00;;;14.50;99.90;;;;;;25400272;23;20259;-68
2022/03/30 17:23:54;;;;;;;0.20;0.10;;;13.70;99.90;;;;;;25402128;23;20202;-70
2022/03/30 17:34:00;;;;;;;0.20;0.00;;;13.50;99.90;;;;;;25403278;23;20167;-68
2022/03/30 17:44:05;;;;;;;0.20;0.10;;;13.30;99.90;;;;;;25402375;23;20194;-64
2022/03/30 17:54:11;;;;;;;0.20;0.10;;;12.70;99.90;;;;;;25403020;23;20218;-64
2022/03/30 18:04:15;;;;;;;0.20;0.00;;;12.80;99.90;;;;;;25400573;23;20238;-66
2022/03/30 18:14:20;;;;;;;0.20;0.10;;;12.50;99.90;;;;;;25403709;23;20195;-65
2022/03/30 18:24:26;;;;;;;0.20;0.10;;;12.30;99.90;;;;;;25402489;23;20198;-63
2022/03/30 18:34:31;;;;;;;0.20;0.10;;;12.30;99.90;;;;;;25405679;23;20163;-64
2022/03/30 18:44:35;;;;;;;3.70;3.40;;;12.30;99.90;;;;;;25383219;23;20188;-63
2022/03/30 18:54:42;;;;;;;0.20;0.10;;;12.00;99.90;;;;;;25407548;23;20192;-65
2022/03/30 19:04:47;;;;;;;0.20;0.10;;;12.20;99.90;;;;;;25407062;23;20199;-63
2022/03/30 19:14:52;;;;;;;0.20;0.10;;;12.20;99.90;;;;;;25411823;23;20195;-65
2022/03/30 19:24:55;;;;;;;0.20;0.10;;;12.20;99.90;;;;;;25411384;23;20202;-63
2022/03/30 19:35:01;;;;;;;0.20;0.10;;;12.50;99.90;;;;;;25388953;23;20179;-65
2022/03/30 19:45:10;;;;;;;0.20;0.10;;;12.20;99.90;;;;;;25411081;23;20188;-64
2022/03/30 19:55:16;;;;;;;0.20;0.10;;;12.20;99.90;;;;;;25381515;23;20264;-68
2022/03/30 20:05:20;;;;;;;0.20;0.10;;;12.20;99.90;;;;;;25408928;23;20191;-67
2022/03/30 20:15:26;;;;;;;0.20;0.10;;;12.20;99.90;;;;;;25387481;23;20202;-68
2022/03/30 20:25:30;;;;;;;0.20;0.10;;;12.00;99.90;;;;;;25412672;23;20187;-68
2022/03/30 20:35:38;;;;;;;0.20;0.10;;;12.00;99.90;;;;;;25413107;23;20167;-68
2022/03/30 20:45:42;;;;;;;0.20;0.10;;;11.80;99.90;;;;;;25412352;23;20195;-68
2022/03/30 20:55:47;;;;;;;0.20;0.10;;;11.90;99.90;;;;;;25415195;23;20196;-68
2022/03/30 21:05:51;;;;;;;0.20;0.00;;;11.90;99.90;;;;;;25386579;23;20213;-76
2022/03/30 21:15:56;;;;;;;0.20;0.00;;;11.90;99.90;;;;;;25413225;23;20188;-79
2022/03/30 21:26:00;;;;;;;0.20;0.10;;;11.90;99.90;;;;;;25421676;23;20198;-75
2022/03/30 21:36:06;;;;;;;0.20;0.10;;;12.00;99.90;;;;;;25417124;23;20167;-75
2022/03/30 21:46:09;;;;;;;0.20;0.10;;;12.20;99.90;;;;;;25381588;23;20206;-76
2022/03/30 21:56:15;;;;;;;0.20;0.10;;;12.20;99.90;;;;;;25406695;23;20206;-80
2022/03/30 22:06:18;;;;;;;0.20;0.10;;;12.20;99.90;;;;;;25406765;23;20246;-75
2022/03/30 22:16:26;;;;;;;0.20;0.10;;;12.40;99.90;;;;;;25407254;23;20211;-64
2022/03/30 22:26:30;;;;;;;0.20;0.10;;;12.10;99.90;;;;;;25407879;23;20215;-63
2022/03/30 22:36:36;;;;;;;0.20;0.10;;;12.10;99.90;;;;;;25405090;23;20187;-64
2022/03/30 22:46:39;;;;;;;0.20;0.00;;;12.10;99.90;;;;;;25384411;23;20494;-64
2022/03/30 22:56:45;;;;;;;0.20;0.10;;;12.00;99.90;;;;;;25410737;23;20199;-64
2022/03/30 23:17:13;;;;;;;0.20;0.10;;;12.10;99.90;;;;;;25412019;23;20190;-62
2022/03/30 23:27:17;;;;;;;0.20;0.10;;;12.00;99.90;;;;;;25388297;23;20206;-62
2022/03/30 23:37:22;;;;;;;0.20;0.07;;;12.00;99.90;;;;;;25411441;23;20167;-62
2022/03/30 23:47:25;;;;;;;0.20;0.10;;;11.90;99.90;;;;;;25410861;23;20202;-63
